createdAt,value
2023-01-13T00:02:17.471Z,28.48
2023-01-13T00:04:44.200Z,21.88
2023-01-13T00:07:11.042Z,21.40
2023-01-13T00:09:37.980Z,23.60
2023-01-13T00:12:05.365Z,24.55
2023-01-13T00:14:35.500Z,20.25
2023-01-13T00:17:02.991Z,17.35
2023-01-13T00:19:29.592Z,20.73
2023-01-13T00:21:56.241Z,21.13
2023-01-13T00:24:22.918Z,17.30
2023-01-13T00:26:49.701Z,18.55
2023-01-13T00:29:16.531Z,15.45
2023-01-13T00:31:43.268Z,19.55
2023-01-13T00:34:09.841Z,17.55
2023-01-13T00:36:36.666Z,14.98
2023-01-13T00:39:03.511Z,20.90
2023-01-13T00:41:50.086Z,20.30
2023-01-13T00:44:16.820Z,17.98
2023-01-13T00:46:43.710Z,23.25
2023-01-13T00:49:10.541Z,21.20
2023-01-13T00:51:37.142Z,24.08
2023-01-13T00:54:03.936Z,21.27
2023-01-13T00:56:40.121Z,19.98
2023-01-13T00:59:11.951Z,19.15
2023-01-13T01:01:39.355Z,21.92
2023-01-13T01:04:06.543Z,19.85
2023-01-13T01:06:33.240Z,18.33
2023-01-13T01:09:00.115Z,21.30
2023-01-13T01:11:28.440Z,19.30
2023-01-13T01:13:56.102Z,20.92
2023-01-13T01:16:23.867Z,17.50
2023-01-13T01:18:51.323Z,23.23
2023-01-13T01:21:18.776Z,15.77
2023-01-13T01:23:45.810Z,19.33
2023-01-13T01:26:14.663Z,15.88
2023-01-13T01:28:41.603Z,15.57
2023-01-13T01:31:14.031Z,13.85
2023-01-13T01:33:43.909Z,16.08
2023-01-13T01:36:12.014Z,49.47
2023-01-13T01:38:38.858Z,129.27
2023-01-13T01:41:06.390Z,58.42
2023-01-13T01:44:02.716Z,19.73
2023-01-13T01:46:29.539Z,17.60
2023-01-13T01:49:09.018Z,15.88
2023-01-13T01:51:39.247Z,14.10
2023-01-13T01:54:07.881Z,16.50
2023-01-13T01:56:35.223Z,15.73
2023-01-13T01:59:02.155Z,14.18
2023-01-13T02:01:29.259Z,15.57
2023-01-13T02:04:00.298Z,16.15
2023-01-13T02:06:30.743Z,24.45
2023-01-13T02:08:58.295Z,23.45
2023-01-13T02:11:51.110Z,16.70
2023-01-13T02:14:18.599Z,15.88
2023-01-13T02:16:48.751Z,16.92
2023-01-13T02:19:27.543Z,14.98
2023-01-13T02:21:57.277Z,16.80
2023-01-13T02:24:54.063Z,16.33
2023-01-13T02:27:36.437Z,14.98
2023-01-13T02:30:33.949Z,16.35
2023-01-13T02:33:20.310Z,15.57
2023-01-13T02:35:50.018Z,19.77
2023-01-13T02:38:19.202Z,17.27
2023-01-13T02:41:22.719Z,14.63
2023-01-13T02:44:09.117Z,16.98
2023-01-13T02:46:41.865Z,13.65
2023-01-13T02:49:10.486Z,13.20
2023-01-13T02:54:09.009Z,14.45
2023-01-13T02:56:37.443Z,10.10
2023-01-13T02:59:04.290Z,11.35
2023-01-13T03:01:31.051Z,16.08
2023-01-13T03:03:57.799Z,20.70
2023-01-13T03:07:03.080Z,14.57
2023-01-13T03:09:33.656Z,17.13
2023-01-13T03:12:07.424Z,20.42
2023-01-13T03:14:41.877Z,12.15
2023-01-13T03:17:32.137Z,15.50
2023-01-13T03:19:58.956Z,19.08
2023-01-13T03:22:25.509Z,14.20
2023-01-13T03:24:57.949Z,22.08
2023-01-13T03:27:43.957Z,27.27
2023-01-13T03:30:15.910Z,19.38
2023-01-13T03:32:44.126Z,14.38
2023-01-13T03:35:20.892Z,14.82
2023-01-13T03:37:51.234Z,14.40
2023-01-13T03:40:20.735Z,15.77
2023-01-13T03:43:12.319Z,17.50
2023-01-13T03:45:39.867Z,23.40
2023-01-13T03:48:12.615Z,18.10
2023-01-13T03:50:41.198Z,12.85
2023-01-13T03:53:14.144Z,16.83
2023-01-13T03:55:56.095Z,14.73
2023-01-13T03:58:24.842Z,11.48
2023-01-13T04:00:54.933Z,27.67
2023-01-13T04:03:31.912Z,13.30
2023-01-13T04:06:04.684Z,12.13
2023-01-13T04:08:32.790Z,11.95
2023-01-13T04:11:34.815Z,13.98
2023-01-13T04:14:03.061Z,16.10
2023-01-13T04:16:29.780Z,19.52
2023-01-13T04:18:56.584Z,15.00
2023-01-13T04:21:23.432Z,18.45
2023-01-13T04:23:51.583Z,14.65
2023-01-13T04:26:19.859Z,13.13
2023-01-13T04:28:46.861Z,17.65
2023-01-13T04:31:13.707Z,16.40
2023-01-13T04:33:40.554Z,24.50
2023-01-13T04:36:07.332Z,12.02
2023-01-13T04:38:33.946Z,15.15
2023-01-13T04:41:12.571Z,21.05
2023-01-13T04:43:40.451Z,14.63
2023-01-13T04:46:07.295Z,14.90
2023-01-13T04:48:33.992Z,16.13
2023-01-13T04:51:00.656Z,16.08
2023-01-13T04:53:29.963Z,16.17
2023-01-13T04:55:56.640Z,12.93
2023-01-13T04:58:23.556Z,24.52
2023-01-13T05:00:50.823Z,16.58
2023-01-13T05:03:18.791Z,19.00
2023-01-13T05:05:45.527Z,13.98
2023-01-13T05:08:12.318Z,13.93
2023-01-13T05:10:39.493Z,13.95
2023-01-13T05:13:24.818Z,15.65
2023-01-13T05:16:23.981Z,15.38
2023-01-13T05:18:50.882Z,15.40
2023-01-13T05:21:35.989Z,14.55
2023-01-13T05:24:25.857Z,13.15
2023-01-13T05:26:52.621Z,16.50
2023-01-13T05:29:19.405Z,15.55
2023-01-13T05:31:46.036Z,16.05
2023-01-13T05:34:12.848Z,18.17
2023-01-13T05:36:39.726Z,11.43
2023-01-13T05:39:06.654Z,13.23
2023-01-13T05:42:01.713Z,13.93
2023-01-13T05:44:29.073Z,12.93
2023-01-13T05:46:56.941Z,13.77
2023-01-13T05:49:25.482Z,14.70
2023-01-13T05:51:53.618Z,14.18
2023-01-13T05:54:20.322Z,15.35
2023-01-13T05:56:47.454Z,16.45
2023-01-13T05:59:16.225Z,16.30
2023-01-13T06:04:12.470Z,17.60
2023-01-13T06:06:39.464Z,18.52
2023-01-13T06:09:06.268Z,19.45
2023-01-13T06:11:33.157Z,19.35
2023-01-13T06:13:59.785Z,18.13
2023-01-13T06:16:26.502Z,17.08
2023-01-13T06:18:54.673Z,17.63
2023-01-13T06:21:21.514Z,19.65
2023-01-13T06:23:48.192Z,20.92
2023-01-13T06:26:19.061Z,17.38
2023-01-13T06:28:46.081Z,19.30
2023-01-13T06:31:12.854Z,23.25
2023-01-13T06:33:42.969Z,17.23
2023-01-13T06:36:16.812Z,17.17
2023-01-13T06:38:46.417Z,16.50
2023-01-13T06:41:13.388Z,18.75
2023-01-13T06:43:40.300Z,16.73
2023-01-13T06:46:07.071Z,18.58
2023-01-13T06:48:35.538Z,16.77
2023-01-13T06:53:30.228Z,17.58
2023-01-13T06:55:57.052Z,19.00
2023-01-13T06:58:23.796Z,23.75
2023-01-13T07:00:51.823Z,22.33
2023-01-13T07:03:19.838Z,21.52
2023-01-13T07:05:53.432Z,20.38
2023-01-13T07:08:20.193Z,29.10
2023-01-13T07:10:46.903Z,25.13
2023-01-13T07:13:32.388Z,21.35
2023-01-13T07:16:03.625Z,28.10
2023-01-13T07:18:31.905Z,41.83
2023-01-13T07:21:02.898Z,45.05
2023-01-13T07:23:30.598Z,45.05
2023-01-13T07:25:57.899Z,38.30
2023-01-13T07:28:26.273Z,34.13
2023-01-13T07:30:52.988Z,51.28
2023-01-13T07:33:20.139Z,45.90
2023-01-13T07:35:47.523Z,35.65
2023-01-13T07:38:14.513Z,31.50
2023-01-13T07:40:41.488Z,17.83
2023-01-13T07:43:29.124Z,19.30
2023-01-13T07:45:57.444Z,30.38
2023-01-13T07:48:24.690Z,16.83
2023-01-13T07:50:51.226Z,19.35
2023-01-13T07:53:18.006Z,18.83
2023-01-13T07:55:44.659Z,18.48
2023-01-13T07:58:11.638Z,19.15
2023-01-13T08:00:38.810Z,18.27
2023-01-13T08:03:05.650Z,19.33
2023-01-13T08:05:32.920Z,20.90
2023-01-13T08:07:59.623Z,12.20
2023-01-13T08:10:26.385Z,19.60
2023-01-13T08:13:11.599Z,14.85
2023-01-13T08:15:38.286Z,12.73
2023-01-13T08:18:05.036Z,20.40
2023-01-13T08:20:31.723Z,15.10
2023-01-13T08:22:59.160Z,14.32
2023-01-13T08:25:26.605Z,13.68
2023-01-13T08:27:53.705Z,20.50
2023-01-13T08:30:20.467Z,13.40
2023-01-13T08:32:50.524Z,13.35
2023-01-13T08:35:17.596Z,11.65
2023-01-13T08:37:45.144Z,12.77
2023-01-13T08:40:12.613Z,14.05
2023-01-13T08:42:39.158Z,22.25
2023-01-13T08:45:06.263Z,10.80
2023-01-13T08:47:33.215Z,11.90
2023-01-13T08:49:59.807Z,9.68
2023-01-13T08:52:26.598Z,9.68
2023-01-13T08:54:53.286Z,10.93
2023-01-13T08:57:20.152Z,8.93
2023-01-13T08:59:47.301Z,9.20
2023-01-13T09:02:15.219Z,10.35
2023-01-13T09:04:43.156Z,10.13
2023-01-13T09:07:10.004Z,8.18
2023-01-13T09:09:37.154Z,10.30
2023-01-13T09:12:22.425Z,9.50
2023-01-13T09:14:49.193Z,7.57
2023-01-13T09:17:15.904Z,7.75
2023-01-13T09:19:42.740Z,8.57
2023-01-13T09:22:13.834Z,6.00
2023-01-13T09:24:40.536Z,7.60
2023-01-13T09:27:07.226Z,7.85
2023-01-13T09:29:33.891Z,7.75
2023-01-13T09:32:00.624Z,6.82
2023-01-13T09:34:45.635Z,5.38
2023-01-13T09:37:12.364Z,19.42
2023-01-13T09:39:39.876Z,4.85
2023-01-13T09:42:40.513Z,6.72
2023-01-13T09:45:07.329Z,8.23
2023-01-13T09:47:37.099Z,6.65
2023-01-13T09:50:20.127Z,8.85
2023-01-13T09:52:46.694Z,14.25
2023-01-13T09:55:17.844Z,6.40
2023-01-13T09:57:44.477Z,7.35
2023-01-13T10:00:11.655Z,8.48
2023-01-13T10:02:56.884Z,8.82
2023-01-13T10:05:35.895Z,9.18
2023-01-13T10:08:05.623Z,8.07
2023-01-13T10:10:41.403Z,10.98
2023-01-13T10:13:28.307Z,12.43
2023-01-13T10:16:10.468Z,20.38
2023-01-13T10:18:56.085Z,8.55
2023-01-13T10:21:41.640Z,8.40
2023-01-13T10:24:27.879Z,9.18
2023-01-13T10:27:05.316Z,8.82
2023-01-13T10:29:32.380Z,7.72
2023-01-13T10:31:59.632Z,8.30
2023-01-13T10:34:26.986Z,8.00
2023-01-13T10:37:00.584Z,10.40
2023-01-13T10:39:27.309Z,8.68
2023-01-13T10:42:06.638Z,8.82
2023-01-13T10:44:46.088Z,11.18
2023-01-13T10:47:19.889Z,6.25
2023-01-13T10:49:58.640Z,7.55
2023-01-13T10:52:29.875Z,6.97
2023-01-13T10:54:56.963Z,5.50
2023-01-13T10:57:25.701Z,5.72
2023-01-13T10:59:53.319Z,8.77
2023-01-13T11:02:26.416Z,7.43
2023-01-13T11:04:53.843Z,13.23
2023-01-13T11:07:31.453Z,12.65
2023-01-13T11:10:10.729Z,10.20
2023-01-13T11:12:50.885Z,8.32
2023-01-13T11:15:19.911Z,11.15
2023-01-13T11:17:49.483Z,8.85
2023-01-13T11:20:16.229Z,7.30
2023-01-13T11:22:47.529Z,8.48
2023-01-13T11:25:17.413Z,7.07
2023-01-13T11:27:53.339Z,6.70
2023-01-13T11:30:23.067Z,7.55
2023-01-13T11:33:25.393Z,6.43
2023-01-13T11:36:10.991Z,7.78
2023-01-13T11:38:40.930Z,7.72
2023-01-13T11:41:26.704Z,14.70
2023-01-13T11:44:05.488Z,9.65
2023-01-13T11:46:32.775Z,6.65
2023-01-13T11:49:00.051Z,8.85
2023-01-13T11:51:32.479Z,8.57
2023-01-13T11:53:59.207Z,6.15
2023-01-13T11:56:31.856Z,12.45
2023-01-13T11:59:05.688Z,8.52
2023-01-13T12:01:32.585Z,6.45
2023-01-13T12:04:05.354Z,16.42
2023-01-13T12:06:35.332Z,6.85
2023-01-13T12:09:16.684Z,12.07
2023-01-13T12:12:05.053Z,7.43
2023-01-13T12:14:50.631Z,17.02
2023-01-13T12:17:26.816Z,6.82
2023-01-13T12:19:53.755Z,5.25
2023-01-13T12:22:28.117Z,8.57
2023-01-13T12:25:04.211Z,6.35
2023-01-13T12:27:37.507Z,9.23
2023-01-13T12:30:13.444Z,7.03
2023-01-13T12:32:40.725Z,6.95
2023-01-13T12:35:16.481Z,6.57
2023-01-13T12:38:08.026Z,11.30
2023-01-13T12:40:34.653Z,7.13
2023-01-13T12:43:36.610Z,8.57
2023-01-13T12:46:21.235Z,7.75
2023-01-13T12:48:58.551Z,7.65
2023-01-13T12:51:29.513Z,8.55
2023-01-13T12:53:56.520Z,8.18
2023-01-13T12:56:38.574Z,11.50
2023-01-13T12:59:17.377Z,10.65
2023-01-13T13:01:45.041Z,10.52
2023-01-13T13:04:34.156Z,12.02
2023-01-13T13:07:13.172Z,8.25
2023-01-13T13:10:03.125Z,12.00
2023-01-13T13:12:51.779Z,10.13
2023-01-13T13:15:22.978Z,32.15
2023-01-13T13:18:08.821Z,8.98
2023-01-13T13:20:54.293Z,9.20
2023-01-13T13:23:26.651Z,30.77
2023-01-13T13:26:00.515Z,13.70
2023-01-13T13:28:30.589Z,24.35
2023-01-13T13:31:06.321Z,9.90
2023-01-13T13:33:47.926Z,11.60
2023-01-13T13:36:21.895Z,14.05
2023-01-13T13:39:07.219Z,14.55
2023-01-13T13:41:54.378Z,10.85
2023-01-13T13:44:56.464Z,9.55
2023-01-13T13:47:23.216Z,12.18
2023-01-13T13:49:54.037Z,9.95
2023-01-13T13:52:24.312Z,11.55
2023-01-13T13:54:52.858Z,8.32
2023-01-13T13:57:34.797Z,8.15
2023-01-13T14:00:06.553Z,8.80
2023-01-13T14:02:38.716Z,8.68
2023-01-13T14:05:17.521Z,10.05
2023-01-13T14:07:45.757Z,9.70
2023-01-13T14:10:28.647Z,30.77
2023-01-13T14:12:55.237Z,10.65
2023-01-13T14:15:26.464Z,11.65
2023-01-13T14:17:53.307Z,12.10
2023-01-13T14:20:20.134Z,12.40
2023-01-13T14:22:48.285Z,12.13
2023-01-13T14:25:30.471Z,7.32
2023-01-13T14:27:58.849Z,44.80
2023-01-13T14:30:27.185Z,15.15
2023-01-13T14:32:54.298Z,18.88
2023-01-13T14:35:20.934Z,11.80
2023-01-13T14:37:49.179Z,15.52
2023-01-13T14:40:38.300Z,17.30
2023-01-13T14:43:14.581Z,12.45
2023-01-13T14:45:45.164Z,15.00
2023-01-13T14:48:14.672Z,50.05
2023-01-13T14:50:47.026Z,36.55
2023-01-13T14:53:35.278Z,23.52
2023-01-13T14:56:21.806Z,26.35
2023-01-13T14:58:52.184Z,21.42
2023-01-13T15:01:27.692Z,37.13
2023-01-13T15:04:15.624Z,23.02
2023-01-13T15:06:45.750Z,30.92
2023-01-13T15:09:13.041Z,23.75
2023-01-13T15:11:40.670Z,26.75
2023-01-13T15:14:10.058Z,16.52
2023-01-13T15:16:37.052Z,22.45
2023-01-13T15:19:04.475Z,19.52
2023-01-13T15:21:31.163Z,25.73
2023-01-13T15:23:57.834Z,26.92
2023-01-13T15:26:26.292Z,25.40
2023-01-13T15:31:20.080Z,40.40
2023-01-13T15:33:47.098Z,42.63
2023-01-13T15:36:18.981Z,54.10
2023-01-13T15:38:45.701Z,52.67
2023-01-13T15:41:13.923Z,40.55
2023-01-13T15:44:01.195Z,41.22
2023-01-13T15:46:39.721Z,94.10
2023-01-13T15:49:18.411Z,71.90
2023-01-13T15:51:45.141Z,65.00
2023-01-13T15:54:12.679Z,49.22
2023-01-13T15:56:39.538Z,39.78
2023-01-13T15:59:10.474Z,37.42
2023-01-13T16:01:37.475Z,29.85
2023-01-13T16:04:04.423Z,30.10
2023-01-13T16:06:36.039Z,29.50
2023-01-13T16:09:03.791Z,29.67
2023-01-13T16:11:30.936Z,34.75
2023-01-13T16:13:58.307Z,21.98
2023-01-13T16:16:26.086Z,24.85
2023-01-13T16:18:53.559Z,38.50
2023-01-13T16:21:20.972Z,40.90
2023-01-13T16:23:48.458Z,46.17
2023-01-13T16:26:18.558Z,38.17
2023-01-13T16:28:45.420Z,32.28
2023-01-13T16:31:17.429Z,32.45
2023-01-13T16:33:44.356Z,43.13
2023-01-13T16:36:15.302Z,40.80
2023-01-13T16:38:42.544Z,43.80
2023-01-13T16:41:09.730Z,72.38
2023-01-13T16:43:36.545Z,78.00
2023-01-13T16:46:09.766Z,60.78
2023-01-13T16:48:36.452Z,32.63
2023-01-13T16:51:05.213Z,40.83
2023-01-13T16:53:31.921Z,35.95
2023-01-13T16:55:58.658Z,22.35
2023-01-13T16:58:25.361Z,35.35
2023-01-13T17:00:53.070Z,29.02
2023-01-13T17:03:19.795Z,37.90
2023-01-13T17:05:49.572Z,42.85
2023-01-13T17:08:17.952Z,111.72
2023-01-13T17:13:16.454Z,29.75
2023-01-13T17:15:44.039Z,25.98
2023-01-13T17:18:11.632Z,39.03
2023-01-13T17:20:38.278Z,30.00
2023-01-13T17:23:04.969Z,38.55
2023-01-13T17:25:31.600Z,44.60
2023-01-13T17:27:58.204Z,47.63
2023-01-13T17:30:25.413Z,41.95
2023-01-13T17:32:52.098Z,45.45
2023-01-13T17:35:24.761Z,42.95
2023-01-13T17:37:52.543Z,36.10
2023-01-13T17:40:19.367Z,42.00
2023-01-13T17:42:45.998Z,35.65
2023-01-13T17:45:13.054Z,41.92
2023-01-13T17:47:39.824Z,38.97
2023-01-13T17:50:06.770Z,45.08
2023-01-13T17:52:34.161Z,49.35
2023-01-13T17:55:00.917Z,47.63
2023-01-13T17:57:27.796Z,52.15
2023-01-13T17:59:54.405Z,41.70
2023-01-13T18:02:21.252Z,46.53
2023-01-13T18:04:48.077Z,41.35
2023-01-13T18:07:14.773Z,47.03
2023-01-13T18:09:41.660Z,41.80
2023-01-13T18:12:16.643Z,55.35
2023-01-13T18:14:43.450Z,47.47
2023-01-13T18:17:10.506Z,36.97
2023-01-13T18:19:55.659Z,37.45
2023-01-13T18:22:41.303Z,35.63
2023-01-13T18:25:32.632Z,30.15
2023-01-13T18:28:08.163Z,40.83
2023-01-13T18:30:37.837Z,39.70
2023-01-13T18:33:04.587Z,47.80
2023-01-13T18:35:31.604Z,59.63
2023-01-13T18:37:58.389Z,70.95
2023-01-13T18:40:25.225Z,62.85
2023-01-13T18:42:52.289Z,56.80
2023-01-13T18:45:20.105Z,38.92
2023-01-13T18:47:46.918Z,36.50
2023-01-13T18:50:14.097Z,38.45
2023-01-13T18:52:41.345Z,35.75
2023-01-13T18:55:09.665Z,40.60
2023-01-13T18:57:40.111Z,43.83
2023-01-13T19:00:08.590Z,34.00
2023-01-13T19:02:35.658Z,37.55
2023-01-13T19:05:02.948Z,39.80
2023-01-13T19:07:31.601Z,36.65
2023-01-13T19:12:27.905Z,39.35
2023-01-13T19:14:55.603Z,43.50
2023-01-13T19:17:23.024Z,38.75
2023-01-13T19:19:54.245Z,44.95
2023-01-13T19:22:23.388Z,50.47
2023-01-13T19:24:50.569Z,49.30
2023-01-13T19:27:18.296Z,55.78
2023-01-13T19:29:52.618Z,43.25
2023-01-13T19:32:22.764Z,49.40
2023-01-13T19:34:51.231Z,45.35
2023-01-13T19:37:18.818Z,42.33
2023-01-13T19:39:45.613Z,43.05
2023-01-13T19:42:31.668Z,47.22
2023-01-13T19:45:17.445Z,44.15
2023-01-13T19:47:45.816Z,47.40
2023-01-13T19:50:13.786Z,41.10
2023-01-13T19:52:41.744Z,42.28
2023-01-13T19:55:09.819Z,52.67
2023-01-13T19:57:37.840Z,54.80
2023-01-13T20:00:06.373Z,56.28
2023-01-13T20:02:44.983Z,62.70
2023-01-13T20:05:12.867Z,65.78
2023-01-13T20:07:39.543Z,59.08
2023-01-13T20:10:06.555Z,39.95
2023-01-13T20:12:33.300Z,33.47
2023-01-13T20:15:00.218Z,30.70
2023-01-13T20:17:27.325Z,28.75
2023-01-13T20:19:55.681Z,23.15
2023-01-13T20:22:24.651Z,24.60
2023-01-13T20:24:56.229Z,26.25
2023-01-13T20:27:26.454Z,25.05
2023-01-13T20:29:53.205Z,26.17
2023-01-13T20:32:19.941Z,29.75
2023-01-13T20:34:47.312Z,30.73
2023-01-13T20:37:14.250Z,30.60
2023-01-13T20:39:48.120Z,29.58
2023-01-13T20:42:30.211Z,34.42
2023-01-13T20:44:57.890Z,36.40
2023-01-13T20:47:25.653Z,35.35
2023-01-13T20:49:53.996Z,37.08
2023-01-13T20:52:20.818Z,33.67
2023-01-13T20:54:47.641Z,33.47
2023-01-13T20:57:14.568Z,31.27
2023-01-13T20:59:42.536Z,31.63
2023-01-13T21:02:13.898Z,28.42
2023-01-13T21:04:41.916Z,27.27
2023-01-13T21:07:08.874Z,27.48
2023-01-13T21:09:36.813Z,34.42
2023-01-13T21:12:23.515Z,26.25
2023-01-13T21:15:09.015Z,27.50
2023-01-13T21:17:54.363Z,26.92
2023-01-13T21:20:23.441Z,26.73
2023-01-13T21:22:50.234Z,29.48
2023-01-13T21:25:17.557Z,27.80
2023-01-13T21:27:44.484Z,25.85
2023-01-13T21:30:15.092Z,27.70
2023-01-13T21:32:42.817Z,30.48
2023-01-13T21:35:09.894Z,29.42
2023-01-13T21:37:37.417Z,36.78
2023-01-13T21:40:04.983Z,47.35
2023-01-13T21:42:50.043Z,42.65
2023-01-13T21:45:35.376Z,41.08
2023-01-13T21:48:02.034Z,33.55
2023-01-13T21:50:29.145Z,40.28
2023-01-13T21:52:56.513Z,60.80
2023-01-13T21:55:25.014Z,62.53
2023-01-13T21:57:55.692Z,37.10
2023-01-13T22:00:23.683Z,35.65
2023-01-13T22:02:50.818Z,37.00
2023-01-13T22:05:18.528Z,37.58
2023-01-13T22:07:45.826Z,30.20
2023-01-13T22:10:23.344Z,29.48
2023-01-13T22:12:53.997Z,27.85
2023-01-13T22:15:20.785Z,28.60
2023-01-13T22:17:49.977Z,39.63
2023-01-13T22:20:17.802Z,32.38
2023-01-13T22:22:44.591Z,31.10
2023-01-13T22:25:12.533Z,30.52
2023-01-13T22:27:40.868Z,27.30
2023-01-13T22:30:08.963Z,25.55
2023-01-13T22:32:37.598Z,21.65
2023-01-13T22:37:31.392Z,21.85
2023-01-13T22:39:58.219Z,21.02
2023-01-13T22:42:25.344Z,23.15
2023-01-13T22:44:52.409Z,26.98
2023-01-13T22:47:19.226Z,23.30
2023-01-13T22:49:47.865Z,23.27
2023-01-13T22:54:41.693Z,23.90
2023-01-13T22:57:08.432Z,23.88
2023-01-13T22:59:35.249Z,21.42
2023-01-13T23:02:02.043Z,21.92
2023-01-13T23:04:28.821Z,25.08
2023-01-13T23:06:55.807Z,22.33
2023-01-13T23:09:22.764Z,20.27
2023-01-13T23:11:49.778Z,19.77
2023-01-13T23:14:16.849Z,32.65
2023-01-13T23:16:43.758Z,32.08
2023-01-13T23:19:11.039Z,28.58
2023-01-13T23:21:38.610Z,33.42
2023-01-13T23:24:06.163Z,25.90
2023-01-13T23:26:33.292Z,21.27
2023-01-13T23:29:01.160Z,21.67
2023-01-13T23:31:28.173Z,20.90
2023-01-13T23:33:55.059Z,20.02
2023-01-13T23:36:23.721Z,16.98
2023-01-13T23:41:19.018Z,17.00
2023-01-13T23:43:56.486Z,23.40
2023-01-13T23:46:23.769Z,16.80
2023-01-13T23:48:50.976Z,20.23
2023-01-13T23:51:18.332Z,17.92
2023-01-13T23:53:46.424Z,19.60
2023-01-13T23:56:14.943Z,19.30
2023-01-13T23:58:42.323Z,19.90
